sensor_id;sensor_type;location;lat;lon;timestamp;temperature;humidity
42199;DHT22;27868;45.184;5.786;2022-12-17T00:02:11;5.70;96.00
42199;DHT22;27868;45.184;5.786;2022-12-17T00:05:14;5.70;95.90
42199;DHT22;27868;45.184;5.786;2022-12-17T00:08:17;5.70;95.90
42199;DHT22;27868;45.184;5.786;2022-12-17T00:11:21;5.70;95.90
42199;DHT22;27868;45.184;5.786;2022-12-17T00:14:24;5.70;95.90
42199;DHT22;27868;45.184;5.786;2022-12-17T00:17:29;5.60;96.20
42199;DHT22;27868;45.184;5.786;2022-12-17T00:20:32;5.70;95.90
42199;DHT22;27868;45.184;5.786;2022-12-17T00:23:36;5.60;95.90
42199;DHT22;27868;45.184;5.786;2022-12-17T00:26:39;5.60;95.90
42199;DHT22;27868;45.184;5.786;2022-12-17T00:29:42;5.60;95.80
42199;DHT22;27868;45.184;5.786;2022-12-17T00:32:46;5.60;95.80
42199;DHT22;27868;45.184;5.786;2022-12-17T00:35:53;5.60;95.90
42199;DHT22;27868;45.184;5.786;2022-12-17T00:38:57;5.60;95.90
42199;DHT22;27868;45.184;5.786;2022-12-17T00:42:01;5.90;96.00
42199;DHT22;27868;45.184;5.786;2022-12-17T00:45:04;5.60;95.90
42199;DHT22;27868;45.184;5.786;2022-12-17T00:48:08;5.60;96.00
42199;DHT22;27868;45.184;5.786;2022-12-17T00:51:11;5.60;96.00
42199;DHT22;27868;45.184;5.786;2022-12-17T00:54:14;5.60;96.00
42199;DHT22;27868;45.184;5.786;2022-12-17T00:57:18;5.60;96.10
42199;DHT22;27868;45.184;5.786;2022-12-17T01:00:21;5.60;95.90
42199;DHT22;27868;45.184;5.786;2022-12-17T01:03:25;5.60;96.20
42199;DHT22;27868;45.184;5.786;2022-12-17T01:06:29;5.60;95.90
42199;DHT22;27868;45.184;5.786;2022-12-17T01:09:32;5.50;96.00
42199;DHT22;27868;45.184;5.786;2022-12-17T01:12:35;5.60;96.00
42199;DHT22;27868;45.184;5.786;2022-12-17T01:15:39;5.60;96.00
42199;DHT22;27868;45.184;5.786;2022-12-17T01:18:57;5.60;95.80
42199;DHT22;27868;45.184;5.786;2022-12-17T01:22:00;5.50;95.80
42199;DHT22;27868;45.184;5.786;2022-12-17T01:25:05;5.50;96.00
42199;DHT22;27868;45.184;5.786;2022-12-17T01:28:09;5.50;96.10
42199;DHT22;27868;45.184;5.786;2022-12-17T01:31:12;5.50;96.10
42199;DHT22;27868;45.184;5.786;2022-12-17T01:34:16;5.50;96.10
42199;DHT22;27868;45.184;5.786;2022-12-17T01:37:19;5.60;96.30
42199;DHT22;27868;45.184;5.786;2022-12-17T01:40:23;5.50;96.30
42199;DHT22;27868;45.184;5.786;2022-12-17T01:43:34;5.50;96.20
42199;DHT22;27868;45.184;5.786;2022-12-17T01:46:42;5.50;96.30
42199;DHT22;27868;45.184;5.786;2022-12-17T01:49:47;5.50;96.30
42199;DHT22;27868;45.184;5.786;2022-12-17T01:52:54;5.50;96.40
42199;DHT22;27868;45.184;5.786;2022-12-17T01:55:58;5.50;96.30
42199;DHT22;27868;45.184;5.786;2022-12-17T01:59:03;5.50;96.40
42199;DHT22;27868;45.184;5.786;2022-12-17T02:02:07;5.60;96.40
42199;DHT22;27868;45.184;5.786;2022-12-17T02:05:11;5.70;96.40
42199;DHT22;27868;45.184;5.786;2022-12-17T02:08:29;5.50;96.40
42199;DHT22;27868;45.184;5.786;2022-12-17T02:11:56;5.70;96.40
42199;DHT22;27868;45.184;5.786;2022-12-17T02:15:07;5.50;96.30
42199;DHT22;27868;45.184;5.786;2022-12-17T02:18:23;5.50;96.30
42199;DHT22;27868;45.184;5.786;2022-12-17T02:21:28;5.50;96.20
42199;DHT22;27868;45.184;5.786;2022-12-17T02:25:03;5.60;96.30
42199;DHT22;27868;45.184;5.786;2022-12-17T02:28:05;5.60;96.20
42199;DHT22;27868;45.184;5.786;2022-12-17T02:31:09;5.60;96.20
42199;DHT22;27868;45.184;5.786;2022-12-17T02:34:13;5.50;96.20
42199;DHT22;27868;45.184;5.786;2022-12-17T02:37:16;5.50;96.20
42199;DHT22;27868;45.184;5.786;2022-12-17T02:40:21;5.50;96.20
42199;DHT22;27868;45.184;5.786;2022-12-17T02:43:27;5.50;96.20
42199;DHT22;27868;45.184;5.786;2022-12-17T02:46:31;5.50;96.50
42199;DHT22;27868;45.184;5.786;2022-12-17T02:49:34;5.50;96.30
42199;DHT22;27868;45.184;5.786;2022-12-17T02:52:46;5.50;96.20
42199;DHT22;27868;45.184;5.786;2022-12-17T02:55:50;5.50;96.20
42199;DHT22;27868;45.184;5.786;2022-12-17T02:58:53;5.50;96.20
42199;DHT22;27868;45.184;5.786;2022-12-17T03:01:56;5.50;96.20
42199;DHT22;27868;45.184;5.786;2022-12-17T03:05:00;5.50;96.30
42199;DHT22;27868;45.184;5.786;2022-12-17T03:08:04;5.50;96.30
42199;DHT22;27868;45.184;5.786;2022-12-17T03:11:07;5.50;96.20
42199;DHT22;27868;45.184;5.786;2022-12-17T03:14:10;5.70;96.30
42199;DHT22;27868;45.184;5.786;2022-12-17T03:17:14;5.50;96.30
42199;DHT22;27868;45.184;5.786;2022-12-17T03:20:17;5.50;96.20
42199;DHT22;27868;45.184;5.786;2022-12-17T03:23:20;5.50;96.10
42199;DHT22;27868;45.184;5.786;2022-12-17T03:26:24;5.50;96.10
42199;DHT22;27868;45.184;5.786;2022-12-17T03:29:27;5.70;96.20
42199;DHT22;27868;45.184;5.786;2022-12-17T03:32:31;5.50;96.10
42199;DHT22;27868;45.184;5.786;2022-12-17T03:35:34;5.50;96.00
42199;DHT22;27868;45.184;5.786;2022-12-17T03:38:37;5.50;96.10
42199;DHT22;27868;45.184;5.786;2022-12-17T03:41:41;5.50;96.00
42199;DHT22;27868;45.184;5.786;2022-12-17T03:44:44;5.50;96.00
42199;DHT22;27868;45.184;5.786;2022-12-17T03:47:47;5.40;96.00
42199;DHT22;27868;45.184;5.786;2022-12-17T03:50:52;5.70;96.00
42199;DHT22;27868;45.184;5.786;2022-12-17T03:53:55;5.40;96.00
42199;DHT22;27868;45.184;5.786;2022-12-17T03:56:59;5.50;96.00
42199;DHT22;27868;45.184;5.786;2022-12-17T04:00:03;5.40;96.00
42199;DHT22;27868;45.184;5.786;2022-12-17T04:03:07;5.40;96.00
42199;DHT22;27868;45.184;5.786;2022-12-17T04:06:10;5.50;96.00
42199;DHT22;27868;45.184;5.786;2022-12-17T04:09:14;5.40;95.90
42199;DHT22;27868;45.184;5.786;2022-12-17T04:12:17;5.50;95.90
42199;DHT22;27868;45.184;5.786;2022-12-17T04:15:20;5.40;95.90
42199;DHT22;27868;45.184;5.786;2022-12-17T04:18:24;5.40;95.90
42199;DHT22;27868;45.184;5.786;2022-12-17T04:21:27;5.40;95.90
42199;DHT22;27868;45.184;5.786;2022-12-17T04:24:31;5.70;96.30
42199;DHT22;27868;45.184;5.786;2022-12-17T04:27:34;5.40;96.00
42199;DHT22;27868;45.184;5.786;2022-12-17T04:30:38;5.40;96.00
42199;DHT22;27868;45.184;5.786;2022-12-17T04:33:41;5.40;96.00
42199;DHT22;27868;45.184;5.786;2022-12-17T04:36:45;5.40;96.00
42199;DHT22;27868;45.184;5.786;2022-12-17T04:39:48;5.40;96.00
42199;DHT22;27868;45.184;5.786;2022-12-17T04:42:52;5.40;96.30
42199;DHT22;27868;45.184;5.786;2022-12-17T04:45:55;5.40;96.00
42199;DHT22;27868;45.184;5.786;2022-12-17T04:48:58;5.40;95.90
42199;DHT22;27868;45.184;5.786;2022-12-17T04:52:02;5.40;95.90
42199;DHT22;27868;45.184;5.786;2022-12-17T04:55:06;5.40;95.90
42199;DHT22;27868;45.184;5.786;2022-12-17T04:58:09;5.40;95.90
42199;DHT22;27868;45.184;5.786;2022-12-17T05:01:12;5.40;95.90
42199;DHT22;27868;45.184;5.786;2022-12-17T05:04:16;5.40;95.80
42199;DHT22;27868;45.184;5.786;2022-12-17T05:07:20;5.40;95.90
42199;DHT22;27868;45.184;5.786;2022-12-17T05:10:23;5.30;95.90
42199;DHT22;27868;45.184;5.786;2022-12-17T05:13:27;5.40;96.00
42199;DHT22;27868;45.184;5.786;2022-12-17T05:16:30;5.30;96.00
42199;DHT22;27868;45.184;5.786;2022-12-17T05:19:34;5.30;96.00
42199;DHT22;27868;45.184;5.786;2022-12-17T05:22:45;5.30;96.00
42199;DHT22;27868;45.184;5.786;2022-12-17T05:25:55;5.30;96.00
42199;DHT22;27868;45.184;5.786;2022-12-17T05:29:03;5.30;96.10
42199;DHT22;27868;45.184;5.786;2022-12-17T05:32:07;5.30;96.20
42199;DHT22;27868;45.184;5.786;2022-12-17T05:35:10;5.60;96.30
42199;DHT22;27868;45.184;5.786;2022-12-17T05:38:13;5.30;96.30
42199;DHT22;27868;45.184;5.786;2022-12-17T05:41:17;5.30;96.30
42199;DHT22;27868;45.184;5.786;2022-12-17T05:44:20;5.30;96.30
42199;DHT22;27868;45.184;5.786;2022-12-17T05:47:24;5.30;96.30
42199;DHT22;27868;45.184;5.786;2022-12-17T05:50:27;5.30;96.30
42199;DHT22;27868;45.184;5.786;2022-12-17T05:53:31;5.30;96.30
42199;DHT22;27868;45.184;5.786;2022-12-17T05:56:34;5.30;96.30
42199;DHT22;27868;45.184;5.786;2022-12-17T05:59:38;5.30;96.30
42199;DHT22;27868;45.184;5.786;2022-12-17T06:02:41;5.30;96.30
42199;DHT22;27868;45.184;5.786;2022-12-17T06:05:44;5.30;96.60
42199;DHT22;27868;45.184;5.786;2022-12-17T06:08:48;5.70;96.50
42199;DHT22;27868;45.184;5.786;2022-12-17T06:11:51;5.40;96.70
42199;DHT22;27868;45.184;5.786;2022-12-17T06:14:54;5.40;96.50
42199;DHT22;27868;45.184;5.786;2022-12-17T06:17:58;5.30;96.50
42199;DHT22;27868;45.184;5.786;2022-12-17T06:21:01;5.30;96.80
42199;DHT22;27868;45.184;5.786;2022-12-17T06:24:05;5.30;96.80
42199;DHT22;27868;45.184;5.786;2022-12-17T06:27:08;5.30;96.60
42199;DHT22;27868;45.184;5.786;2022-12-17T06:30:11;5.30;96.60
42199;DHT22;27868;45.184;5.786;2022-12-17T06:33:15;5.30;96.60
42199;DHT22;27868;45.184;5.786;2022-12-17T06:36:19;5.40;96.60
42199;DHT22;27868;45.184;5.786;2022-12-17T06:39:23;5.30;96.60
42199;DHT22;27868;45.184;5.786;2022-12-17T06:42:26;5.30;96.70
42199;DHT22;27868;45.184;5.786;2022-12-17T06:45:29;5.30;96.70
42199;DHT22;27868;45.184;5.786;2022-12-17T06:48:33;5.30;96.70
42199;DHT22;27868;45.184;5.786;2022-12-17T06:51:36;5.40;96.70
42199;DHT22;27868;45.184;5.786;2022-12-17T06:54:40;5.70;96.80
42199;DHT22;27868;45.184;5.786;2022-12-17T06:57:43;5.50;96.70
42199;DHT22;27868;45.184;5.786;2022-12-17T07:00:46;5.30;96.70
42199;DHT22;27868;45.184;5.786;2022-12-17T07:03:50;5.30;96.80
42199;DHT22;27868;45.184;5.786;2022-12-17T07:06:53;5.40;96.90
42199;DHT22;27868;45.184;5.786;2022-12-17T07:09:56;5.30;96.80
42199;DHT22;27868;45.184;5.786;2022-12-17T07:13:05;5.30;96.80
42199;DHT22;27868;45.184;5.786;2022-12-17T07:16:08;5.40;96.90
42199;DHT22;27868;45.184;5.786;2022-12-17T07:19:12;5.40;97.00
42199;DHT22;27868;45.184;5.786;2022-12-17T07:22:15;5.40;97.00
42199;DHT22;27868;45.184;5.786;2022-12-17T07:25:18;5.40;97.00
42199;DHT22;27868;45.184;5.786;2022-12-17T07:28:22;5.30;97.00
42199;DHT22;27868;45.184;5.786;2022-12-17T07:31:25;5.40;97.10
42199;DHT22;27868;45.184;5.786;2022-12-17T07:34:29;5.40;97.10
42199;DHT22;27868;45.184;5.786;2022-12-17T07:37:32;5.40;97.10
42199;DHT22;27868;45.184;5.786;2022-12-17T07:40:35;5.30;97.00
42199;DHT22;27868;45.184;5.786;2022-12-17T07:43:39;5.40;97.10
42199;DHT22;27868;45.184;5.786;2022-12-17T07:46:44;5.40;97.10
42199;DHT22;27868;45.184;5.786;2022-12-17T07:49:47;5.40;97.10
42199;DHT22;27868;45.184;5.786;2022-12-17T07:53:03;5.40;97.10
42199;DHT22;27868;45.184;5.786;2022-12-17T07:56:08;5.50;97.20
42199;DHT22;27868;45.184;5.786;2022-12-17T07:59:11;5.40;97.40
42199;DHT22;27868;45.184;5.786;2022-12-17T08:02:14;5.40;97.10
42199;DHT22;27868;45.184;5.786;2022-12-17T08:05:18;5.40;97.20
42199;DHT22;27868;45.184;5.786;2022-12-17T08:08:21;5.50;97.20
42199;DHT22;27868;45.184;5.786;2022-12-17T08:11:25;5.40;97.30
42199;DHT22;27868;45.184;5.786;2022-12-17T08:14:28;5.40;97.30
42199;DHT22;27868;45.184;5.786;2022-12-17T08:17:32;5.50;97.30
42199;DHT22;27868;45.184;5.786;2022-12-17T08:20:35;5.40;97.30
42199;DHT22;27868;45.184;5.786;2022-12-17T08:23:39;5.50;97.40
42199;DHT22;27868;45.184;5.786;2022-12-17T08:26:42;5.40;97.40
42199;DHT22;27868;45.184;5.786;2022-12-17T08:29:46;5.40;97.40
42199;DHT22;27868;45.184;5.786;2022-12-17T08:32:49;5.50;97.40
42199;DHT22;27868;45.184;5.786;2022-12-17T08:35:54;5.40;97.40
42199;DHT22;27868;45.184;5.786;2022-12-17T08:38:57;5.50;97.50
42199;DHT22;27868;45.184;5.786;2022-12-17T08:42:01;5.50;97.40
42199;DHT22;27868;45.184;5.786;2022-12-17T08:45:05;5.50;97.40
42199;DHT22;27868;45.184;5.786;2022-12-17T08:48:09;5.50;97.40
42199;DHT22;27868;45.184;5.786;2022-12-17T08:51:12;5.60;97.50
42199;DHT22;27868;45.184;5.786;2022-12-17T08:54:16;5.50;97.70
42199;DHT22;27868;45.184;5.786;2022-12-17T08:57:19;5.50;97.50
42199;DHT22;27868;45.184;5.786;2022-12-17T09:00:23;5.60;97.50
42199;DHT22;27868;45.184;5.786;2022-12-17T09:03:40;5.50;97.50
42199;DHT22;27868;45.184;5.786;2022-12-17T09:06:44;5.60;97.50
42199;DHT22;27868;45.184;5.786;2022-12-17T09:09:47;5.60;97.60
42199;DHT22;27868;45.184;5.786;2022-12-17T09:12:51;5.50;97.60
42199;DHT22;27868;45.184;5.786;2022-12-17T09:15:55;5.60;97.90
42199;DHT22;27868;45.184;5.786;2022-12-17T09:18:59;5.80;97.70
42199;DHT22;27868;45.184;5.786;2022-12-17T09:22:03;5.60;97.60
42199;DHT22;27868;45.184;5.786;2022-12-17T09:25:06;5.60;97.70
42199;DHT22;27868;45.184;5.786;2022-12-17T09:28:10;5.60;97.60
42199;DHT22;27868;45.184;5.786;2022-12-17T09:31:13;5.70;97.60
42199;DHT22;27868;45.184;5.786;2022-12-17T09:34:18;5.60;97.50
42199;DHT22;27868;45.184;5.786;2022-12-17T09:37:21;5.60;97.50
42199;DHT22;27868;45.184;5.786;2022-12-17T09:40:25;5.70;97.50
42199;DHT22;27868;45.184;5.786;2022-12-17T09:50:19;5.70;97.50
42199;DHT22;27868;45.184;5.786;2022-12-17T09:53:44;5.70;97.50
42199;DHT22;27868;45.184;5.786;2022-12-17T09:56:49;5.70;97.50
42199;DHT22;27868;45.184;5.786;2022-12-17T09:59:53;5.80;97.60
42199;DHT22;27868;45.184;5.786;2022-12-17T10:02:56;5.80;97.50
42199;DHT22;27868;45.184;5.786;2022-12-17T10:06:19;5.80;97.40
42199;DHT22;27868;45.184;5.786;2022-12-17T10:09:26;5.70;97.30
42199;DHT22;27868;45.184;5.786;2022-12-17T10:12:31;5.70;97.20
42199;DHT22;27868;45.184;5.786;2022-12-17T10:15:35;5.80;97.20
42199;DHT22;27868;45.184;5.786;2022-12-17T10:18:39;5.80;97.40
42199;DHT22;27868;45.184;5.786;2022-12-17T10:21:42;5.80;97.00
42199;DHT22;27868;45.184;5.786;2022-12-17T10:24:46;5.80;97.00
42199;DHT22;27868;45.184;5.786;2022-12-17T10:27:49;5.80;97.00
42199;DHT22;27868;45.184;5.786;2022-12-17T10:30:53;5.80;96.90
42199;DHT22;27868;45.184;5.786;2022-12-17T10:33:57;5.80;96.90
42199;DHT22;27868;45.184;5.786;2022-12-17T10:37:01;5.80;96.80
42199;DHT22;27868;45.184;5.786;2022-12-17T10:40:27;5.90;96.90
42199;DHT22;27868;45.184;5.786;2022-12-17T10:43:37;5.90;96.90
42199;DHT22;27868;45.184;5.786;2022-12-17T10:46:41;5.90;96.90
42199;DHT22;27868;45.184;5.786;2022-12-17T10:49:56;5.80;97.00
42199;DHT22;27868;45.184;5.786;2022-12-17T10:53:00;5.90;96.90
42199;DHT22;27868;45.184;5.786;2022-12-17T10:56:04;5.90;96.80
42199;DHT22;27868;45.184;5.786;2022-12-17T10:59:35;5.90;96.80
42199;DHT22;27868;45.184;5.786;2022-12-17T11:02:46;5.90;96.80
42199;DHT22;27868;45.184;5.786;2022-12-17T11:05:54;6.00;96.90
42199;DHT22;27868;45.184;5.786;2022-12-17T11:08:59;5.90;96.70
42199;DHT22;27868;45.184;5.786;2022-12-17T11:12:05;5.90;96.70
42199;DHT22;27868;45.184;5.786;2022-12-17T11:21:51;5.90;96.50
42199;DHT22;27868;45.184;5.786;2022-12-17T11:25:06;6.00;96.60
42199;DHT22;27868;45.184;5.786;2022-12-17T11:28:22;6.00;96.60
42199;DHT22;27868;45.184;5.786;2022-12-17T11:47:58;6.10;96.20
42199;DHT22;27868;45.184;5.786;2022-12-17T11:51:17;6.10;96.00
42199;DHT22;27868;45.184;5.786;2022-12-17T11:58:21;6.10;96.00
42199;DHT22;27868;45.184;5.786;2022-12-17T12:08:18;6.10;95.80
42199;DHT22;27868;45.184;5.786;2022-12-17T12:11:37;6.20;95.80
42199;DHT22;27868;45.184;5.786;2022-12-17T12:18:32;6.20;95.80
42199;DHT22;27868;45.184;5.786;2022-12-17T12:21:57;6.30;95.80
42199;DHT22;27868;45.184;5.786;2022-12-17T12:29:22;6.30;95.60
42199;DHT22;27868;45.184;5.786;2022-12-17T12:36:03;6.30;95.50
42199;DHT22;27868;45.184;5.786;2022-12-17T12:39:12;6.40;95.50
42199;DHT22;27868;45.184;5.786;2022-12-17T12:42:31;6.40;95.50
42199;DHT22;27868;45.184;5.786;2022-12-17T12:46:01;6.40;94.80
42199;DHT22;27868;45.184;5.786;2022-12-17T12:52:33;6.50;95.20
42199;DHT22;27868;45.184;5.786;2022-12-17T12:55:40;6.50;95.00
42199;DHT22;27868;45.184;5.786;2022-12-17T12:58:44;6.50;95.00
42199;DHT22;27868;45.184;5.786;2022-12-17T13:01:47;6.50;94.70
42199;DHT22;27868;45.184;5.786;2022-12-17T13:05:24;6.50;94.50
42199;DHT22;27868;45.184;5.786;2022-12-17T13:08:21;6.50;94.60
42199;DHT22;27868;45.184;5.786;2022-12-17T13:11:27;6.50;94.50
42199;DHT22;27868;45.184;5.786;2022-12-17T13:14:20;6.50;94.40
42199;DHT22;27868;45.184;5.786;2022-12-17T13:20:18;6.50;94.50
42199;DHT22;27868;45.184;5.786;2022-12-17T13:23:34;6.60;94.60
42199;DHT22;27868;45.184;5.786;2022-12-17T13:26:42;6.60;94.30
42199;DHT22;27868;45.184;5.786;2022-12-17T13:29:31;7.10;94.30
42199;DHT22;27868;45.184;5.786;2022-12-17T13:32:22;6.70;93.90
42199;DHT22;27868;45.184;5.786;2022-12-17T13:35:42;6.70;94.00
42199;DHT22;27868;45.184;5.786;2022-12-17T13:38:57;6.50;93.90
42199;DHT22;27868;45.184;5.786;2022-12-17T13:41:59;6.50;94.00
42199;DHT22;27868;45.184;5.786;2022-12-17T13:44:46;6.50;94.10
42199;DHT22;27868;45.184;5.786;2022-12-17T13:47:33;6.50;94.00
42199;DHT22;27868;45.184;5.786;2022-12-17T13:50:22;6.50;93.90
42199;DHT22;27868;45.184;5.786;2022-12-17T13:53:13;6.60;94.00
42199;DHT22;27868;45.184;5.786;2022-12-17T13:56:00;6.60;93.80
42199;DHT22;27868;45.184;5.786;2022-12-17T13:58:50;6.60;93.80
42199;DHT22;27868;45.184;5.786;2022-12-17T14:01:52;6.60;93.70
42199;DHT22;27868;45.184;5.786;2022-12-17T14:04:38;6.60;93.90
42199;DHT22;27868;45.184;5.786;2022-12-17T14:07:26;6.60;93.90
42199;DHT22;27868;45.184;5.786;2022-12-17T14:10:15;6.60;93.60
42199;DHT22;27868;45.184;5.786;2022-12-17T14:13:12;6.60;93.70
42199;DHT22;27868;45.184;5.786;2022-12-17T14:15:59;6.60;93.80
42199;DHT22;27868;45.184;5.786;2022-12-17T14:18:48;6.60;93.60
42199;DHT22;27868;45.184;5.786;2022-12-17T14:21:35;7.10;93.70
42199;DHT22;27868;45.184;5.786;2022-12-17T14:24:23;6.60;93.70
42199;DHT22;27868;45.184;5.786;2022-12-17T14:27:24;6.80;93.90
42199;DHT22;27868;45.184;5.786;2022-12-17T14:30:40;6.60;93.90
42199;DHT22;27868;45.184;5.786;2022-12-17T14:33:30;6.60;93.80
42199;DHT22;27868;45.184;5.786;2022-12-17T14:36:19;6.60;93.70
42199;DHT22;27868;45.184;5.786;2022-12-17T14:39:16;6.60;93.80
42199;DHT22;27868;45.184;5.786;2022-12-17T14:42:21;6.60;93.80
42199;DHT22;27868;45.184;5.786;2022-12-17T14:48:01;6.70;93.70
42199;DHT22;27868;45.184;5.786;2022-12-17T14:50:55;6.70;93.80
42199;DHT22;27868;45.184;5.786;2022-12-17T14:53:40;6.90;94.00
42199;DHT22;27868;45.184;5.786;2022-12-17T14:56:24;6.70;93.90
42199;DHT22;27868;45.184;5.786;2022-12-17T14:59:39;6.70;93.90
42199;DHT22;27868;45.184;5.786;2022-12-17T15:02:27;6.70;93.90
42199;DHT22;27868;45.184;5.786;2022-12-17T15:05:15;6.80;93.80
42199;DHT22;27868;45.184;5.786;2022-12-17T15:08:00;6.80;93.90
42199;DHT22;27868;45.184;5.786;2022-12-17T15:10:44;6.70;93.90
42199;DHT22;27868;45.184;5.786;2022-12-17T15:13:29;6.80;93.70
42199;DHT22;27868;45.184;5.786;2022-12-17T15:16:14;6.80;93.60
42199;DHT22;27868;45.184;5.786;2022-12-17T15:18:59;6.70;93.70
42199;DHT22;27868;45.184;5.786;2022-12-17T15:21:44;6.70;93.60
42199;DHT22;27868;45.184;5.786;2022-12-17T15:24:29;6.70;93.60
42199;DHT22;27868;45.184;5.786;2022-12-17T15:27:17;6.70;93.70
42199;DHT22;27868;45.184;5.786;2022-12-17T15:30:04;6.70;93.70
42199;DHT22;27868;45.184;5.786;2022-12-17T15:32:52;6.70;93.50
42199;DHT22;27868;45.184;5.786;2022-12-17T15:35:39;6.70;93.40
42199;DHT22;27868;45.184;5.786;2022-12-17T15:38:24;7.10;93.60
42199;DHT22;27868;45.184;5.786;2022-12-17T15:41:09;6.90;93.70
42199;DHT22;27868;45.184;5.786;2022-12-17T15:44:16;6.60;93.50
42199;DHT22;27868;45.184;5.786;2022-12-17T15:47:00;6.60;93.50
42199;DHT22;27868;45.184;5.786;2022-12-17T15:49:45;6.60;93.40
42199;DHT22;27868;45.184;5.786;2022-12-17T15:52:31;6.60;93.50
42199;DHT22;27868;45.184;5.786;2022-12-17T15:55:16;6.60;93.60
42199;DHT22;27868;45.184;5.786;2022-12-17T15:58:00;6.80;93.80
42199;DHT22;27868;45.184;5.786;2022-12-17T16:00:45;6.80;93.70
42199;DHT22;27868;45.184;5.786;2022-12-17T16:03:30;6.60;93.70
42199;DHT22;27868;45.184;5.786;2022-12-17T16:06:17;6.50;93.70
42199;DHT22;27868;45.184;5.786;2022-12-17T16:09:02;6.60;93.80
42199;DHT22;27868;45.184;5.786;2022-12-17T16:11:47;6.50;93.70
42199;DHT22;27868;45.184;5.786;2022-12-17T16:14:32;6.50;93.70
42199;DHT22;27868;45.184;5.786;2022-12-17T16:17:17;6.40;93.70
42199;DHT22;27868;45.184;5.786;2022-12-17T16:20:03;6.70;93.80
42199;DHT22;27868;45.184;5.786;2022-12-17T16:22:48;6.40;93.70
42199;DHT22;27868;45.184;5.786;2022-12-17T16:25:33;6.30;93.80
42199;DHT22;27868;45.184;5.786;2022-12-17T16:28:17;6.30;93.80
42199;DHT22;27868;45.184;5.786;2022-12-17T16:31:08;6.60;93.80
42199;DHT22;27868;45.184;5.786;2022-12-17T16:33:57;6.40;93.80
42199;DHT22;27868;45.184;5.786;2022-12-17T16:37:05;5.50;93.60
42199;DHT22;27868;45.184;5.786;2022-12-17T16:39:50;6.20;94.00
42199;DHT22;27868;45.184;5.786;2022-12-17T16:42:35;6.20;93.80
42199;DHT22;27868;45.184;5.786;2022-12-17T16:45:19;6.30;93.90
42199;DHT22;27868;45.184;5.786;2022-12-17T16:48:04;6.80;94.00
42199;DHT22;27868;45.184;5.786;2022-12-17T16:50:50;6.10;94.00
42199;DHT22;27868;45.184;5.786;2022-12-17T16:53:42;6.00;93.90
42199;DHT22;27868;45.184;5.786;2022-12-17T16:56:28;6.00;93.90
42199;DHT22;27868;45.184;5.786;2022-12-17T16:59:29;6.00;94.10
42199;DHT22;27868;45.184;5.786;2022-12-17T17:02:47;6.00;93.90
42199;DHT22;27868;45.184;5.786;2022-12-17T17:05:36;6.60;94.30
42199;DHT22;27868;45.184;5.786;2022-12-17T17:08:22;5.90;94.10
42199;DHT22;27868;45.184;5.786;2022-12-17T17:11:15;7.30;94.40
42199;DHT22;27868;45.184;5.786;2022-12-17T17:14:04;5.50;94.00
42199;DHT22;27868;45.184;5.786;2022-12-17T17:16:51;5.90;94.00
42199;DHT22;27868;45.184;5.786;2022-12-17T17:19:37;7.00;94.50
42199;DHT22;27868;45.184;5.786;2022-12-17T17:22:25;5.80;94.00
42199;DHT22;27868;45.184;5.786;2022-12-17T17:25:11;6.00;94.00
42199;DHT22;27868;45.184;5.786;2022-12-17T17:27:56;5.90;94.00
42199;DHT22;27868;45.184;5.786;2022-12-17T17:30:40;5.80;94.00
42199;DHT22;27868;45.184;5.786;2022-12-17T17:33:29;5.80;94.10
42199;DHT22;27868;45.184;5.786;2022-12-17T17:39:04;6.00;94.20
42199;DHT22;27868;45.184;5.786;2022-12-17T17:41:50;6.00;94.30
42199;DHT22;27868;45.184;5.786;2022-12-17T17:44:36;5.70;94.30
42199;DHT22;27868;45.184;5.786;2022-12-17T17:47:23;5.90;94.70
42199;DHT22;27868;45.184;5.786;2022-12-17T17:50:10;5.70;94.50
42199;DHT22;27868;45.184;5.786;2022-12-17T17:52:58;5.70;94.50
42199;DHT22;27868;45.184;5.786;2022-12-17T17:55:43;5.70;94.70
42199;DHT22;27868;45.184;5.786;2022-12-17T17:58:30;5.70;94.70
42199;DHT22;27868;45.184;5.786;2022-12-17T18:01:28;6.20;94.80
42199;DHT22;27868;45.184;5.786;2022-12-17T18:04:17;5.70;94.60
42199;DHT22;27868;45.184;5.786;2022-12-17T18:07:07;5.90;94.70
42199;DHT22;27868;45.184;5.786;2022-12-17T18:09:54;5.70;94.60
42199;DHT22;27868;45.184;5.786;2022-12-17T18:12:39;6.30;94.70
42199;DHT22;27868;45.184;5.786;2022-12-17T18:15:42;5.70;94.50
42199;DHT22;27868;45.184;5.786;2022-12-17T18:18:27;5.90;94.50
42199;DHT22;27868;45.184;5.786;2022-12-17T18:21:14;5.80;94.50
42199;DHT22;27868;45.184;5.786;2022-12-17T18:24:03;5.60;94.40
42199;DHT22;27868;45.184;5.786;2022-12-17T18:26:50;5.60;94.50
42199;DHT22;27868;45.184;5.786;2022-12-17T18:29:35;5.60;94.50
42199;DHT22;27868;45.184;5.786;2022-12-17T18:32:20;5.60;94.50
42199;DHT22;27868;45.184;5.786;2022-12-17T18:35:06;6.20;94.80
42199;DHT22;27868;45.184;5.786;2022-12-17T18:37:51;5.60;94.60
42199;DHT22;27868;45.184;5.786;2022-12-17T18:40:36;6.00;94.80
42199;DHT22;27868;45.184;5.786;2022-12-17T18:43:22;5.70;94.60
42199;DHT22;27868;45.184;5.786;2022-12-17T18:46:07;6.10;94.80
42199;DHT22;27868;45.184;5.786;2022-12-17T18:48:55;5.60;94.70
42199;DHT22;27868;45.184;5.786;2022-12-17T18:51:42;5.90;94.70
42199;DHT22;27868;45.184;5.786;2022-12-17T18:54:29;6.10;94.80
42199;DHT22;27868;45.184;5.786;2022-12-17T18:57:15;6.70;94.90
42199;DHT22;27868;45.184;5.786;2022-12-17T19:00:00;6.70;95.00
42199;DHT22;27868;45.184;5.786;2022-12-17T19:02:46;6.10;95.00
42199;DHT22;27868;45.184;5.786;2022-12-17T19:05:31;5.50;94.80
42199;DHT22;27868;45.184;5.786;2022-12-17T19:08:17;5.60;94.90
42199;DHT22;27868;45.184;5.786;2022-12-17T19:11:06;5.50;94.80
42199;DHT22;27868;45.184;5.786;2022-12-17T19:13:52;5.50;94.80
42199;DHT22;27868;45.184;5.786;2022-12-17T19:16:37;5.90;95.00
42199;DHT22;27868;45.184;5.786;2022-12-17T19:19:22;5.50;95.00
42199;DHT22;27868;45.184;5.786;2022-12-17T19:22:08;5.50;94.90
42199;DHT22;27868;45.184;5.786;2022-12-17T19:24:54;5.40;95.00
42199;DHT22;27868;45.184;5.786;2022-12-17T19:27:38;5.90;95.20
42199;DHT22;27868;45.184;5.786;2022-12-17T19:30:24;6.40;95.30
42199;DHT22;27868;45.184;5.786;2022-12-17T19:33:09;5.50;95.00
42199;DHT22;27868;45.184;5.786;2022-12-17T19:36:04;5.50;95.10
42199;DHT22;27868;45.184;5.786;2022-12-17T19:38:55;5.50;95.10
42199;DHT22;27868;45.184;5.786;2022-12-17T19:41:41;6.90;95.40
42199;DHT22;27868;45.184;5.786;2022-12-17T19:44:26;5.50;95.10
42199;DHT22;27868;45.184;5.786;2022-12-17T19:47:11;6.00;95.30
42199;DHT22;27868;45.184;5.786;2022-12-17T19:49:56;5.90;95.30
42199;DHT22;27868;45.184;5.786;2022-12-17T19:52:41;5.40;95.40
42199;DHT22;27868;45.184;5.786;2022-12-17T19:55:26;5.40;95.30
42199;DHT22;27868;45.184;5.786;2022-12-17T19:58:10;6.00;95.50
42199;DHT22;27868;45.184;5.786;2022-12-17T20:00:55;6.40;95.70
42199;DHT22;27868;45.184;5.786;2022-12-17T20:03:41;5.40;95.40
42199;DHT22;27868;45.184;5.786;2022-12-17T20:06:28;5.90;95.50
42199;DHT22;27868;45.184;5.786;2022-12-17T20:09:14;6.20;95.70
42199;DHT22;27868;45.184;5.786;2022-12-17T20:12:01;6.00;95.60
42199;DHT22;27868;45.184;5.786;2022-12-17T20:14:45;6.00;95.60